createdAt,value
2022-11-24T00:01:10.877Z,100.00
2022-11-24T00:03:37.683Z,100.00
2022-11-24T00:06:07.658Z,100.00
2022-11-24T00:08:38.812Z,100.00
2022-11-24T00:11:11.644Z,100.00
2022-11-24T00:13:41.603Z,100.00
2022-11-24T00:16:10.757Z,100.00
2022-11-24T00:18:38.713Z,100.00
2022-11-24T00:21:05.432Z,100.00
2022-11-24T00:23:32.529Z,100.00
2022-11-24T00:26:13.368Z,100.00
2022-11-24T00:28:41.045Z,100.00
2022-11-24T00:31:35.351Z,100.00
2022-11-24T00:34:04.842Z,100.00
2022-11-24T00:36:33.766Z,100.00
2022-11-24T00:39:11.008Z,100.00
2022-11-24T00:41:37.632Z,100.00
2022-11-24T00:44:04.533Z,99.68
2022-11-24T00:46:31.334Z,100.00
2022-11-24T00:49:00.374Z,100.00
2022-11-24T00:51:30.237Z,99.99
2022-11-24T00:53:57.919Z,100.00
2022-11-24T00:56:25.950Z,99.59
2022-11-24T00:58:53.088Z,99.16
2022-11-24T01:01:22.482Z,99.21
2022-11-24T01:03:49.416Z,99.85
2022-11-24T01:06:19.620Z,99.68
2022-11-24T01:08:47.022Z,99.07
2022-11-24T01:11:25.931Z,98.78
2022-11-24T01:13:57.902Z,98.63
2022-11-24T01:16:25.903Z,98.94
2022-11-24T01:18:52.913Z,99.11
2022-11-24T01:21:20.305Z,99.22
2022-11-24T01:23:46.966Z,99.27
2022-11-24T01:26:16.503Z,98.74
2022-11-24T01:28:47.097Z,98.86
2022-11-24T01:31:14.457Z,97.99
2022-11-24T01:33:41.164Z,98.08
2022-11-24T01:36:07.885Z,98.49
2022-11-24T01:38:34.679Z,98.85
2022-11-24T01:41:07.236Z,98.90
2022-11-24T01:43:34.738Z,98.83
2022-11-24T01:46:24.157Z,98.38
2022-11-24T01:49:13.843Z,98.75
2022-11-24T01:51:45.784Z,99.20
2022-11-24T01:54:18.380Z,99.45
2022-11-24T01:56:48.882Z,99.44
2022-11-24T01:59:18.847Z,98.99
2022-11-24T02:01:47.598Z,98.44
2022-11-24T02:04:18.686Z,98.28
2022-11-24T02:06:46.632Z,97.57
2022-11-24T02:09:33.262Z,97.86
2022-11-24T02:12:02.132Z,98.21
2022-11-24T02:14:28.873Z,98.05
2022-11-24T02:16:55.730Z,97.43
2022-11-24T02:19:45.123Z,97.29
2022-11-24T02:22:37.502Z,97.12
2022-11-24T02:25:29.113Z,96.67
2022-11-24T02:27:56.697Z,96.49
2022-11-24T02:30:23.696Z,96.73
2022-11-24T02:32:51.590Z,97.08
2022-11-24T02:35:18.834Z,96.99
2022-11-24T02:37:45.445Z,94.87
2022-11-24T02:40:15.580Z,94.44
2022-11-24T02:42:46.197Z,94.62
2022-11-24T02:45:15.371Z,94.95
2022-11-24T02:47:42.051Z,94.80
2022-11-24T02:50:08.840Z,93.96
2022-11-24T02:52:35.431Z,95.26
2022-11-24T02:55:02.065Z,95.59
2022-11-24T02:57:28.742Z,96.00
2022-11-24T02:59:55.320Z,95.73
2022-11-24T03:02:22.499Z,95.96
2022-11-24T03:04:49.327Z,96.34
2022-11-24T03:07:16.065Z,96.78
2022-11-24T03:09:42.765Z,97.11
2022-11-24T03:12:09.393Z,97.48
2022-11-24T03:14:36.229Z,97.45
2022-11-24T03:17:04.164Z,97.67
2022-11-24T03:19:30.742Z,97.35
2022-11-24T03:21:57.328Z,97.79
2022-11-24T03:24:23.895Z,97.19
2022-11-24T03:26:50.542Z,97.58
2022-11-24T03:29:17.345Z,97.77
2022-11-24T03:31:44.023Z,98.03
2022-11-24T03:34:10.845Z,98.08
2022-11-24T03:36:37.430Z,98.38
2022-11-24T03:39:04.105Z,98.16
2022-11-24T03:41:30.725Z,98.58
2022-11-24T03:43:57.315Z,98.55
2022-11-24T03:46:23.932Z,98.43
2022-11-24T03:48:50.560Z,98.46
2022-11-24T03:51:17.187Z,98.11
2022-11-24T03:53:43.800Z,97.73
2022-11-24T03:56:10.404Z,97.13
2022-11-24T03:58:37.084Z,96.68
2022-11-24T04:01:03.842Z,95.73
2022-11-24T04:03:30.544Z,95.61
2022-11-24T04:05:57.125Z,95.25
2022-11-24T04:08:23.707Z,95.37
2022-11-24T04:10:53.284Z,95.02
2022-11-24T04:13:22.580Z,94.80
2022-11-24T04:15:49.583Z,94.96
2022-11-24T04:18:16.251Z,94.97
2022-11-24T04:20:43.396Z,95.40
2022-11-24T04:23:10.656Z,95.26
2022-11-24T04:25:37.935Z,94.88
2022-11-24T04:28:04.988Z,95.27
2022-11-24T04:30:31.790Z,95.44
2022-11-24T04:32:58.960Z,95.26
2022-11-24T04:35:25.660Z,95.26
2022-11-24T04:37:52.331Z,95.18
2022-11-24T04:40:19.740Z,94.98
2022-11-24T04:42:54.725Z,94.60
2022-11-24T04:45:22.172Z,94.29
2022-11-24T04:47:48.753Z,94.28
2022-11-24T04:50:15.779Z,94.42
2022-11-24T04:52:43.298Z,93.94
2022-11-24T04:55:10.447Z,94.03
2022-11-24T04:57:37.087Z,93.79
2022-11-24T05:00:04.362Z,93.66
2022-11-24T05:02:31.029Z,93.90
2022-11-24T05:04:57.614Z,94.28
2022-11-24T05:07:24.261Z,94.16
2022-11-24T05:10:09.559Z,94.52
2022-11-24T05:12:36.394Z,94.39
2022-11-24T05:15:05.111Z,95.25
2022-11-24T05:17:34.457Z,97.01
2022-11-24T05:20:02.174Z,97.91
2022-11-24T05:22:29.573Z,97.95
2022-11-24T05:24:56.219Z,99.03
2022-11-24T05:27:23.436Z,98.11
2022-11-24T05:29:50.154Z,98.27
2022-11-24T05:32:16.790Z,98.48
2022-11-24T05:34:43.417Z,98.63
2022-11-24T05:37:10.240Z,98.14
2022-11-24T05:39:37.287Z,98.79
2022-11-24T05:42:25.874Z,98.68
2022-11-24T05:44:53.527Z,99.41
2022-11-24T05:47:20.767Z,99.32
2022-11-24T05:49:47.462Z,99.77
2022-11-24T05:52:14.854Z,99.60
2022-11-24T05:54:41.626Z,99.48
2022-11-24T05:57:08.202Z,99.25
2022-11-24T05:59:34.938Z,99.37
2022-11-24T06:02:01.913Z,99.62
2022-11-24T06:04:28.717Z,99.45
2022-11-24T06:06:55.307Z,98.75
2022-11-24T06:09:21.908Z,98.21
2022-11-24T06:11:49.255Z,98.24
2022-11-24T06:14:15.859Z,98.86
2022-11-24T06:16:42.570Z,99.23
2022-11-24T06:19:10.377Z,98.80
2022-11-24T06:21:37.041Z,98.02
2022-11-24T06:24:04.483Z,96.95
2022-11-24T06:26:31.099Z,97.40
2022-11-24T06:28:57.699Z,97.01
2022-11-24T06:31:24.314Z,96.70
2022-11-24T06:33:50.948Z,97.41
2022-11-24T06:36:17.582Z,97.05
2022-11-24T06:38:44.205Z,96.75
2022-11-24T06:41:16.061Z,96.74
2022-11-24T06:43:43.177Z,96.13
2022-11-24T06:46:10.728Z,95.18
2022-11-24T06:48:37.406Z,94.73
2022-11-24T06:51:06.729Z,94.35
2022-11-24T06:53:38.497Z,94.25
2022-11-24T06:56:13.814Z,93.88
2022-11-24T06:58:48.012Z,94.57
2022-11-24T07:01:22.768Z,94.15
2022-11-24T07:03:50.297Z,94.65
2022-11-24T07:06:18.092Z,95.49
2022-11-24T07:08:45.388Z,95.08
2022-11-24T07:11:23.012Z,94.96
2022-11-24T07:13:55.090Z,95.47
2022-11-24T07:16:25.736Z,95.28
2022-11-24T07:18:53.860Z,95.37
2022-11-24T07:21:22.371Z,95.83
2022-11-24T07:23:54.366Z,95.46
2022-11-24T07:26:22.471Z,94.01
2022-11-24T07:28:49.855Z,93.82
2022-11-24T07:31:19.592Z,93.67
2022-11-24T07:33:49.947Z,94.14
2022-11-24T07:36:16.997Z,94.94
2022-11-24T07:38:43.578Z,94.06
2022-11-24T07:41:12.620Z,93.49
2022-11-24T07:43:39.698Z,93.27
2022-11-24T07:46:08.184Z,93.50
2022-11-24T07:48:35.017Z,92.54
2022-11-24T07:51:02.863Z,92.95
2022-11-24T07:53:29.464Z,92.21
2022-11-24T07:56:00.248Z,91.66
2022-11-24T07:58:32.613Z,91.07
2022-11-24T08:01:00.313Z,90.98
2022-11-24T08:03:27.247Z,91.11
2022-11-24T08:08:46.143Z,91.01
2022-11-24T08:11:15.708Z,91.23
2022-11-24T08:13:42.881Z,91.59
2022-11-24T08:16:16.781Z,90.49
2022-11-24T08:18:44.924Z,90.27
2022-11-24T08:21:14.658Z,89.82
2022-11-24T08:23:41.815Z,90.38
2022-11-24T08:26:13.698Z,89.69
2022-11-24T08:28:40.360Z,88.87
2022-11-24T08:31:16.406Z,89.38
2022-11-24T08:33:43.461Z,88.66
2022-11-24T08:36:13.517Z,89.53
2022-11-24T08:38:40.445Z,90.33
2022-11-24T08:41:10.017Z,90.54
2022-11-24T08:43:37.006Z,90.34
2022-11-24T08:46:09.449Z,89.50
2022-11-24T08:48:36.889Z,90.76
2022-11-24T08:51:09.042Z,91.81
2022-11-24T08:53:35.647Z,90.99
2022-11-24T08:56:03.886Z,88.94
2022-11-24T08:58:31.286Z,87.88
2022-11-24T09:01:22.521Z,87.91
2022-11-24T09:03:51.202Z,88.65
2022-11-24T09:06:22.869Z,89.16
2022-11-24T09:08:50.033Z,88.49
2022-11-24T09:11:17.247Z,88.79
2022-11-24T09:13:44.359Z,88.26
2022-11-24T09:16:16.865Z,87.46
2022-11-24T09:18:43.955Z,86.63
2022-11-24T09:21:15.187Z,86.16
2022-11-24T09:23:43.040Z,85.68
2022-11-24T09:26:13.923Z,84.91
2022-11-24T09:28:41.587Z,84.61
2022-11-24T09:31:10.578Z,84.29
2022-11-24T09:33:38.784Z,82.14
2022-11-24T09:36:06.306Z,83.41
2022-11-24T09:38:33.244Z,83.43
2022-11-24T09:41:20.438Z,83.29
2022-11-24T09:44:11.440Z,82.98
2022-11-24T09:47:06.696Z,83.38
2022-11-24T09:49:49.886Z,83.14
2022-11-24T09:52:23.111Z,82.93
2022-11-24T09:55:03.396Z,81.52
2022-11-24T09:57:37.508Z,83.03
2022-11-24T10:00:12.346Z,83.12
2022-11-24T10:02:39.162Z,82.75
2022-11-24T10:05:06.942Z,80.79
2022-11-24T10:07:42.510Z,80.57
2022-11-24T10:10:24.267Z,80.78
2022-11-24T10:13:22.375Z,80.27
2022-11-24T10:16:04.561Z,79.10
2022-11-24T10:18:40.274Z,78.86
2022-11-24T10:21:06.878Z,78.85
2022-11-24T10:24:04.382Z,79.23
2022-11-24T10:26:39.407Z,78.89
2022-11-24T10:29:23.434Z,78.31
2022-11-24T10:31:54.590Z,77.79
2022-11-24T10:34:37.273Z,77.38
2022-11-24T10:37:38.727Z,77.57
2022-11-24T10:40:33.380Z,77.10
2022-11-24T10:43:06.458Z,76.63
2022-11-24T10:45:33.321Z,76.52
2022-11-24T10:47:59.876Z,76.83
2022-11-24T10:50:36.282Z,75.84
2022-11-24T10:53:09.097Z,76.54
2022-11-24T10:55:54.515Z,76.01
2022-11-24T10:58:24.024Z,74.66
2022-11-24T11:00:50.714Z,75.21
2022-11-24T11:03:21.840Z,74.41
2022-11-24T11:05:52.518Z,75.32
2022-11-24T11:08:30.290Z,75.64
2022-11-24T11:11:29.577Z,73.77
2022-11-24T11:14:04.267Z,72.92
2022-11-24T11:16:37.269Z,72.59
2022-11-24T11:19:26.090Z,72.72
2022-11-24T11:22:03.628Z,73.45
2022-11-24T11:24:30.718Z,73.04
2022-11-24T11:27:05.415Z,72.00
2022-11-24T11:35:05.491Z,71.46
2022-11-24T11:37:33.087Z,71.72
2022-11-24T11:40:00.498Z,70.84
2022-11-24T11:45:35.825Z,70.78
2022-11-24T11:48:02.958Z,71.46
2022-11-24T11:51:21.060Z,70.68
2022-11-24T11:53:46.545Z,70.69
2022-11-24T11:56:30.253Z,72.12
2022-11-24T11:59:07.052Z,71.10
2022-11-24T12:01:51.477Z,71.76
2022-11-24T12:04:49.071Z,71.98
2022-11-24T12:07:54.592Z,71.55
2022-11-24T12:10:55.364Z,70.99
2022-11-24T12:13:43.499Z,70.75
2022-11-24T12:16:21.872Z,70.90
2022-11-24T12:18:58.421Z,70.66
2022-11-24T12:21:37.399Z,70.48
2022-11-24T12:24:09.711Z,70.94
2022-11-24T12:26:46.381Z,70.89
2022-11-24T12:29:30.005Z,71.56
2022-11-24T12:32:23.123Z,71.68
2022-11-24T12:35:18.986Z,72.16
2022-11-24T12:38:08.391Z,71.56
2022-11-24T12:40:47.428Z,71.46
2022-11-24T12:43:27.435Z,72.72
2022-11-24T12:46:17.756Z,70.48
2022-11-24T12:48:53.563Z,71.31
2022-11-24T12:51:25.827Z,72.29
2022-11-24T12:53:54.560Z,71.69
2022-11-24T12:56:30.868Z,72.28
2022-11-24T12:59:17.718Z,71.65
2022-11-24T13:01:53.988Z,72.12
2022-11-24T13:04:59.146Z,71.54
2022-11-24T13:07:47.761Z,72.09
2022-11-24T13:10:46.514Z,71.63
2022-11-24T13:13:12.384Z,71.71
2022-11-24T13:16:20.617Z,70.31
2022-11-24T13:18:57.304Z,70.17
2022-11-24T13:21:30.983Z,71.84
2022-11-24T13:23:59.687Z,71.49
2022-11-24T13:26:48.727Z,71.83
2022-11-24T13:29:39.000Z,71.04
2022-11-24T13:32:05.554Z,69.91
2022-11-24T13:34:42.671Z,70.35
2022-11-24T13:37:31.328Z,71.23
2022-11-24T13:40:04.938Z,70.64
2022-11-24T13:42:43.457Z,71.46
2022-11-24T13:45:40.305Z,71.55
2022-11-24T13:48:19.442Z,72.89
2022-11-24T13:50:58.306Z,73.06
2022-11-24T13:53:42.437Z,73.79
2022-11-24T13:56:22.672Z,73.53
2022-11-24T13:58:58.624Z,74.32
2022-11-24T14:01:29.024Z,75.79
2022-11-24T14:06:48.043Z,74.84
2022-11-24T14:09:26.411Z,74.73
2022-11-24T14:12:02.059Z,73.85
2022-11-24T14:14:28.751Z,73.15
2022-11-24T14:17:16.081Z,72.84
2022-11-24T14:19:46.270Z,73.01
2022-11-24T14:22:27.699Z,73.60
2022-11-24T14:24:59.430Z,73.75
2022-11-24T14:27:37.399Z,73.26
2022-11-24T14:30:18.205Z,73.38
2022-11-24T14:32:58.401Z,73.80
2022-11-24T14:35:36.160Z,74.39
2022-11-24T14:38:05.484Z,74.95
2022-11-24T14:40:49.115Z,74.50
2022-11-24T14:43:29.369Z,74.71
2022-11-24T14:45:59.304Z,75.13
2022-11-24T14:48:33.452Z,75.11
2022-11-24T14:51:08.929Z,75.23
2022-11-24T14:53:35.912Z,75.33
2022-11-24T14:56:21.784Z,75.94
2022-11-24T14:58:48.671Z,76.57
2022-11-24T15:01:30.121Z,77.10
2022-11-24T15:04:39.044Z,77.56
2022-11-24T15:07:06.763Z,78.58
2022-11-24T15:09:51.542Z,78.46
2022-11-24T15:12:22.724Z,78.81
2022-11-24T15:14:52.022Z,79.34
2022-11-24T15:17:23.002Z,79.98
2022-11-24T15:19:55.543Z,80.84
2022-11-24T15:22:40.308Z,81.10
2022-11-24T15:25:33.452Z,80.89
2022-11-24T15:28:00.863Z,81.03
2022-11-24T15:30:34.692Z,80.85
2022-11-24T15:33:01.746Z,81.02
2022-11-24T15:35:32.611Z,82.45
2022-11-24T15:37:59.198Z,81.49
2022-11-24T15:40:25.860Z,82.70
2022-11-24T15:42:56.278Z,82.60
2022-11-24T15:45:26.322Z,83.40
2022-11-24T15:47:53.260Z,83.26
2022-11-24T15:50:20.528Z,83.95
2022-11-24T15:52:48.326Z,84.27
2022-11-24T15:55:20.404Z,83.86
2022-11-24T15:57:47.561Z,84.78
2022-11-24T16:00:23.884Z,84.58
2022-11-24T16:02:50.641Z,84.96
2022-11-24T16:05:18.219Z,85.93
2022-11-24T16:07:44.879Z,85.01
2022-11-24T16:10:30.036Z,85.40
2022-11-24T16:12:56.607Z,86.26
2022-11-24T16:15:23.302Z,85.40
2022-11-24T16:17:50.181Z,85.75
2022-11-24T16:20:17.252Z,86.65
2022-11-24T16:22:43.856Z,88.42
2022-11-24T16:25:11.550Z,87.45
2022-11-24T16:27:38.545Z,87.15
2022-11-24T16:30:06.306Z,87.39
2022-11-24T16:32:33.330Z,88.16
2022-11-24T16:34:59.934Z,87.60
2022-11-24T16:37:26.498Z,87.95
2022-11-24T16:39:53.076Z,88.45
2022-11-24T16:42:19.731Z,88.49
2022-11-24T16:44:46.429Z,88.80
2022-11-24T16:47:13.093Z,88.46
2022-11-24T16:49:39.788Z,88.59
2022-11-24T16:52:06.426Z,88.98
2022-11-24T16:54:33.351Z,89.77
2022-11-24T16:57:00.212Z,89.41
2022-11-24T16:59:26.789Z,89.05
2022-11-24T17:01:53.516Z,89.61
2022-11-24T17:04:20.184Z,89.60
2022-11-24T17:06:46.795Z,90.26
2022-11-24T17:09:13.442Z,89.75
2022-11-24T17:11:40.302Z,90.47
2022-11-24T17:14:06.981Z,89.81
2022-11-24T17:16:33.617Z,89.65
2022-11-24T17:19:00.357Z,89.32
2022-11-24T17:21:27.891Z,89.71
2022-11-24T17:24:05.411Z,90.36
2022-11-24T17:26:33.233Z,89.92
2022-11-24T17:28:59.817Z,90.37
2022-11-24T17:31:29.161Z,89.25
2022-11-24T17:33:57.687Z,89.74
2022-11-24T17:36:24.654Z,89.28
2022-11-24T17:38:52.296Z,90.97
2022-11-24T17:41:21.122Z,90.41
2022-11-24T17:43:50.652Z,90.79
2022-11-24T17:46:18.529Z,91.62
2022-11-24T17:48:47.480Z,92.01
2022-11-24T17:51:17.320Z,91.99
2022-11-24T17:53:48.461Z,92.11
2022-11-24T17:56:20.916Z,92.20
2022-11-24T17:58:48.460Z,92.48
2022-11-24T18:01:15.750Z,92.57
2022-11-24T18:03:43.272Z,93.14
2022-11-24T18:06:13.017Z,93.37
2022-11-24T18:08:46.963Z,94.28
2022-11-24T18:11:27.346Z,94.04
2022-11-24T18:14:00.934Z,95.12
2022-11-24T18:16:31.353Z,94.13
2022-11-24T18:19:08.754Z,96.34
2022-11-24T18:21:46.153Z,96.55
2022-11-24T18:24:13.811Z,98.22
2022-11-24T18:26:41.825Z,98.01
2022-11-24T18:29:09.845Z,98.57
2022-11-24T18:31:37.335Z,98.48
2022-11-24T18:34:05.837Z,99.46
2022-11-24T18:36:33.175Z,98.79
2022-11-24T18:39:08.150Z,99.01
2022-11-24T18:41:35.719Z,99.39
2022-11-24T18:44:03.116Z,99.89
2022-11-24T18:46:31.363Z,100.00
2022-11-24T18:48:57.965Z,100.00
2022-11-24T18:51:24.744Z,100.00
2022-11-24T18:53:54.598Z,100.00
2022-11-24T18:56:22.468Z,100.00
2022-11-24T18:58:53.447Z,100.00
2022-11-24T19:01:26.438Z,100.00
2022-11-24T19:03:58.241Z,100.00
2022-11-24T19:06:34.529Z,100.00
2022-11-24T19:09:06.833Z,100.00
2022-11-24T19:11:37.224Z,100.00
2022-11-24T19:14:06.327Z,100.00
2022-11-24T19:16:34.472Z,100.00
2022-11-24T19:19:03.976Z,100.00
2022-11-24T19:21:33.596Z,100.00
2022-11-24T19:24:05.399Z,100.00
2022-11-24T19:26:36.498Z,100.00
2022-11-24T19:29:04.822Z,100.00
2022-11-24T19:31:32.172Z,100.00
2022-11-24T19:33:59.967Z,100.00
2022-11-24T19:36:26.995Z,100.00
2022-11-24T19:38:58.748Z,99.27
2022-11-24T19:41:30.681Z,99.58
2022-11-24T19:43:58.943Z,99.70
2022-11-24T19:46:29.852Z,100.00
2022-11-24T19:49:00.457Z,100.00
2022-11-24T19:51:35.576Z,99.80
2022-11-24T19:54:03.606Z,100.00
2022-11-24T19:56:34.103Z,100.00
2022-11-24T19:59:01.322Z,100.00
2022-11-24T20:01:31.457Z,100.00
2022-11-24T20:04:04.444Z,100.00
2022-11-24T20:06:33.700Z,100.00
2022-11-24T20:09:01.027Z,100.00
2022-11-24T20:11:28.620Z,100.00
2022-11-24T20:13:56.442Z,100.00
2022-11-24T20:16:26.695Z,100.00
2022-11-24T20:18:55.335Z,100.00
2022-11-24T20:21:25.005Z,100.00
2022-11-24T20:23:56.992Z,100.00
2022-11-24T20:26:25.240Z,100.00
2022-11-24T20:28:54.110Z,100.00
2022-11-24T20:31:35.032Z,100.00
2022-11-24T20:34:03.158Z,100.00
2022-11-24T20:36:31.795Z,100.00
2022-11-24T20:39:05.868Z,100.00
2022-11-24T20:41:34.089Z,100.00
2022-11-24T20:44:10.622Z,100.00
2022-11-24T20:46:38.881Z,100.00
2022-11-24T20:49:07.475Z,100.00
2022-11-24T20:51:39.713Z,100.00
2022-11-24T20:54:08.563Z,100.00
2022-11-24T20:56:39.737Z,100.00
2022-11-24T20:59:07.255Z,100.00
2022-11-24T21:01:38.336Z,100.00
2022-11-24T21:04:07.903Z,100.00
2022-11-24T21:06:34.960Z,100.00
2022-11-24T21:09:04.123Z,100.00
2022-11-24T21:11:31.272Z,100.00
2022-11-24T21:13:57.948Z,100.00
2022-11-24T21:16:27.667Z,100.00
2022-11-24T21:18:59.958Z,100.00
2022-11-24T21:21:33.904Z,100.00
2022-11-24T21:24:13.998Z,100.00
2022-11-24T21:26:41.938Z,100.00
2022-11-24T21:29:11.376Z,100.00
2022-11-24T21:31:39.032Z,100.00
2022-11-24T21:34:07.377Z,100.00
2022-11-24T21:36:35.211Z,100.00
2022-11-24T21:39:03.369Z,100.00
2022-11-24T21:41:32.625Z,100.00
2022-11-24T21:43:59.232Z,100.00
2022-11-24T21:46:25.797Z,100.00
2022-11-24T21:48:52.603Z,100.00
2022-11-24T21:51:20.862Z,100.00
2022-11-24T21:53:48.257Z,100.00
2022-11-24T21:56:17.224Z,100.00
2022-11-24T21:58:48.698Z,100.00
2022-11-24T22:01:17.753Z,100.00
2022-11-24T22:03:44.643Z,100.00
2022-11-24T22:06:11.895Z,100.00
2022-11-24T22:08:38.757Z,100.00
2022-11-24T22:11:08.495Z,100.00
2022-11-24T22:13:35.159Z,100.00
2022-11-24T22:16:06.267Z,100.00
2022-11-24T22:18:34.781Z,100.00
2022-11-24T22:21:05.088Z,100.00
2022-11-24T22:23:33.249Z,100.00
2022-11-24T22:26:14.397Z,100.00
2022-11-24T22:28:42.099Z,100.00
2022-11-24T22:31:13.103Z,100.00
2022-11-24T22:33:39.839Z,100.00
2022-11-24T22:36:07.007Z,100.00
2022-11-24T22:38:34.437Z,100.00
2022-11-24T22:41:05.715Z,100.00
2022-11-24T22:43:34.175Z,100.00
2022-11-24T22:46:28.104Z,100.00
2022-11-24T22:48:55.444Z,100.00
2022-11-24T22:51:25.355Z,100.00
2022-11-24T22:53:56.067Z,100.00
2022-11-24T22:56:23.664Z,100.00
2022-11-24T22:58:50.839Z,100.00
2022-11-24T23:01:23.054Z,100.00
2022-11-24T23:03:51.021Z,100.00
2022-11-24T23:06:22.869Z,100.00
2022-11-24T23:08:50.408Z,100.00
2022-11-24T23:11:20.070Z,100.00
2022-11-24T23:13:46.753Z,100.00
2022-11-24T23:16:18.186Z,100.00
2022-11-24T23:18:49.837Z,100.00
2022-11-24T23:21:21.707Z,100.00
2022-11-24T23:23:49.632Z,100.00
2022-11-24T23:26:22.326Z,100.00
2022-11-24T23:28:49.273Z,100.00
2022-11-24T23:31:18.243Z,100.00
2022-11-24T23:33:45.321Z,100.00
2022-11-24T23:36:15.385Z,100.00
2022-11-24T23:38:43.066Z,100.00
2022-11-24T23:41:12.080Z,100.00
2022-11-24T23:43:40.222Z,100.00
2022-11-24T23:46:09.126Z,100.00
2022-11-24T23:48:36.603Z,100.00
2022-11-24T23:51:13.131Z,100.00
2022-11-24T23:53:40.624Z,100.00
2022-11-24T23:56:07.825Z,100.00
2022-11-24T23:58:35.004Z,100.00
